Time;durP1;ratioP1;P1;durP2;ratioP2;P2;SDS_P1;SDS_P2;PMS_P1;PMS_P2;Temp;Humidity;BMP_temperature;BMP_pressure;BME280_temperature;BME280_humidity;BME280_pressure;Samples;Min_cycle;Max_cycle;Signal;HPM_P1;HPM_P2
2023/05/17 00:00:50;;;;;;;15.38;6.10;;;7.80;94.60;;;;;;6183147;22;93613;-76
2023/05/17 00:03:15;;;;;;;16.58;6.32;;;7.80;94.70;;;;;;6183865;22;92143;-77
2023/05/17 00:05:41;;;;;;;19.58;6.03;;;7.80;94.70;;;;;;6155632;22;94490;-77
2023/05/17 00:08:06;;;;;;;14.75;5.47;;;7.80;94.80;;;;;;6183176;22;92666;-77
2023/05/17 00:10:32;;;;;;;19.63;5.15;;;7.70;94.70;;;;;;6184785;22;92446;-77
2023/05/17 00:12:58;;;;;;;10.13;5.10;;;7.70;94.50;;;;;;6182636;22;92542;-77
2023/05/17 00:15:23;;;;;;;9.40;5.30;;;7.60;94.60;;;;;;6182829;22;93822;-76
2023/05/17 00:17:49;;;;;;;11.93;6.40;;;7.60;94.50;;;;;;6182851;22;93150;-76
2023/05/17 00:20:15;;;;;;;15.15;5.15;;;7.60;94.50;;;;;;6183778;22;92028;-76
2023/05/17 00:22:42;;;;;;;12.20;5.50;;;7.60;94.40;;;;;;6184184;22;92269;-76
2023/05/17 00:25:08;;;;;;;13.82;5.60;;;7.50;94.30;;;;;;6181810;22;94623;-76
2023/05/17 00:27:33;;;;;;;19.65;5.88;;;7.50;94.80;;;;;;6181174;22;96122;-76
2023/05/17 00:29:59;;;;;;;15.77;5.53;;;7.40;94.80;;;;;;6183195;22;92435;-76
2023/05/17 00:32:24;;;;;;;12.35;6.35;;;7.40;94.80;;;;;;6156195;22;92489;-76
2023/05/17 00:34:50;;;;;;;10.18;5.57;;;7.40;94.90;;;;;;6183060;22;92645;-76
2023/05/17 00:37:16;;;;;;;16.00;6.10;;;7.30;94.60;;;;;;6182162;22;96181;-76
2023/05/17 00:39:41;;;;;;;9.50;5.20;;;7.30;94.50;;;;;;6183787;22;92405;-77
2023/05/17 00:42:07;;;;;;;11.80;5.55;;;7.20;94.40;;;;;;6183830;22;91557;-77
2023/05/17 00:44:32;;;;;;;11.07;5.88;;;7.10;94.50;;;;;;6182607;22;93661;-76
2023/05/17 00:47:01;;;;;;;15.20;6.18;;;7.10;94.80;;;;;;6182849;22;93861;-77
2023/05/17 00:49:28;;;;;;;11.75;5.28;;;7.10;94.70;;;;;;6183537;22;93999;-76
2023/05/17 00:51:54;;;;;;;16.25;6.22;;;7.00;94.60;;;;;;6183143;22;92778;-76
2023/05/17 00:54:20;;;;;;;17.35;6.03;;;7.00;94.70;;;;;;6182975;22;94163;-77
2023/05/17 00:56:47;;;;;;;18.65;6.47;;;7.00;95.00;;;;;;6182978;22;93542;-77
2023/05/17 00:59:13;;;;;;;8.93;5.60;;;6.90;95.00;;;;;;6183348;22;91982;-76
2023/05/17 01:01:42;;;;;;;13.60;6.15;;;6.90;95.00;;;;;;6184318;22;92600;-77
2023/05/17 01:04:09;;;;;;;13.13;6.03;;;6.90;95.00;;;;;;6183020;22;94227;-76
2023/05/17 01:06:35;;;;;;;16.52;5.30;;;6.80;95.30;;;;;;6183567;22;93304;-76
2023/05/17 01:09:02;;;;;;;13.48;6.05;;;6.80;95.20;;;;;;6181805;22;92057;-77
2023/05/17 01:11:30;;;;;;;9.90;5.63;;;6.80;95.10;;;;;;6183351;22;92335;-77
2023/05/17 01:14:12;;;;;;;16.83;7.22;;;6.70;95.40;;;;;;6181340;22;95213;-77
2023/05/17 01:16:52;;;;;;;13.20;7.00;;;6.70;95.50;;;;;;6183775;22;94274;-76
2023/05/17 01:19:48;;;;;;;19.52;7.03;;;6.60;95.40;;;;;;6183981;22;92533;-77
2023/05/17 01:22:19;;;;;;;14.38;7.20;;;6.60;95.60;;;;;;6183461;22;92153;-76
2023/05/17 01:25:23;;;;;;;15.85;6.10;;;6.60;95.60;;;;;;6183535;22;92645;-77
2023/05/17 01:27:51;;;;;;;15.38;6.55;;;6.50;95.50;;;;;;6180391;22;93525;-76
2023/05/17 01:30:19;;;;;;;14.88;6.10;;;6.50;95.60;;;;;;6184682;22;92062;-77
2023/05/17 01:32:46;;;;;;;14.13;6.95;;;6.50;95.40;;;;;;6184922;22;91659;-77
2023/05/17 01:35:11;;;;;;;17.08;7.63;;;6.40;96.00;;;;;;6158210;22;94227;-76
2023/05/17 01:37:38;;;;;;;11.35;6.50;;;6.40;96.20;;;;;;6181961;22;93883;-76
2023/05/17 01:40:06;;;;;;;15.93;7.70;;;6.40;95.80;;;;;;6179638;22;93418;-76
2023/05/17 01:42:32;;;;;;;18.20;7.72;;;6.40;96.10;;;;;;6180262;22;92439;-77
2023/05/17 01:45:21;;;;;;;16.38;8.23;;;6.30;96.40;;;;;;6179520;22;93915;-77
2023/05/17 01:48:11;;;;;;;16.00;7.57;;;6.30;96.50;;;;;;6183129;22;92504;-77
2023/05/17 01:50:38;;;;;;;14.25;7.00;;;6.30;96.40;;;;;;6184096;22;92451;-77
2023/05/17 01:53:10;;;;;;;14.68;6.55;;;6.30;96.40;;;;;;6184049;22;92419;-76
2023/05/17 01:56:03;;;;;;;20.15;8.07;;;6.20;96.30;;;;;;6184976;22;93424;-77
2023/05/17 01:58:33;;;;;;;21.20;9.15;;;6.20;96.80;;;;;;6184028;22;98207;-76
2023/05/17 02:01:00;;;;;;;11.23;7.60;;;6.20;96.80;;;;;;6184017;22;92415;-77
2023/05/17 02:03:27;;;;;;;16.10;7.90;;;6.20;96.80;;;;;;6183967;22;92651;-76
2023/05/17 02:05:53;;;;;;;20.90;8.90;;;6.10;96.80;;;;;;6182862;22;94176;-76
2023/05/17 02:08:19;;;;;;;19.20;8.88;;;6.10;96.90;;;;;;6182913;22;93874;-76
2023/05/17 02:10:44;;;;;;;16.15;8.35;;;6.10;97.00;;;;;;6184432;22;92414;-77
2023/05/17 02:13:11;;;;;;;16.88;8.43;;;6.10;96.90;;;;;;6183749;22;92655;-76
2023/05/17 02:15:37;;;;;;;16.67;8.82;;;6.00;96.90;;;;;;6183642;22;93327;-77
2023/05/17 02:18:02;;;;;;;16.90;7.97;;;6.00;96.70;;;;;;6183823;22;93318;-77
2023/05/17 02:20:28;;;;;;;19.58;8.80;;;6.00;96.90;;;;;;6183772;22;92495;-77
2023/05/17 02:22:54;;;;;;;13.68;9.20;;;6.00;97.10;;;;;;6183617;22;91625;-77
2023/05/17 02:25:19;;;;;;;18.52;8.27;;;6.00;97.40;;;;;;6184272;22;93246;-76
2023/05/17 02:27:45;;;;;;;14.73;8.20;;;5.90;97.20;;;;;;6181648;22;95056;-77
2023/05/17 02:30:12;;;;;;;18.88;8.38;;;5.90;97.00;;;;;;6183693;22;93554;-77
2023/05/17 02:32:38;;;;;;;17.05;7.22;;;5.90;97.10;;;;;;6184026;22;92783;-77
2023/05/17 02:35:04;;;;;;;17.40;9.10;;;5.90;96.80;;;;;;6183313;22;93521;-77
2023/05/17 02:37:30;;;;;;;21.05;8.35;;;5.80;96.40;;;;;;6183735;22;93865;-77
2023/05/17 02:39:55;;;;;;;12.60;7.05;;;5.80;96.40;;;;;;6182268;22;92646;-77
2023/05/17 02:42:21;;;;;;;14.57;8.35;;;5.70;96.40;;;;;;6184008;22;92473;-77
2023/05/17 02:44:51;;;;;;;19.67;8.20;;;5.70;96.60;;;;;;6183195;22;93025;-77
2023/05/17 02:47:19;;;;;;;15.32;7.75;;;5.70;96.70;;;;;;6184432;22;94766;-76
2023/05/17 02:49:45;;;;;;;14.85;7.28;;;5.60;96.60;;;;;;6184842;22;92451;-76
2023/05/17 02:52:11;;;;;;;17.23;8.48;;;5.60;96.50;;;;;;6184207;22;92419;-77
2023/05/17 02:54:37;;;;;;;17.35;8.23;;;5.70;96.40;;;;;;6182948;22;93621;-77
2023/05/17 02:57:03;;;;;;;17.10;9.07;;;5.70;96.70;;;;;;6181464;22;95672;-77
2023/05/17 02:59:28;;;;;;;19.67;9.38;;;5.60;96.90;;;;;;6183794;22;92476;-76
2023/05/17 03:01:54;;;;;;;16.42;8.75;;;5.70;97.10;;;;;;6183584;22;92303;-76
2023/05/17 03:04:20;;;;;;;20.40;8.68;;;5.60;97.20;;;;;;6184974;22;94047;-76
2023/05/17 03:06:45;;;;;;;17.85;9.20;;;5.60;97.10;;;;;;6183816;22;93618;-76
2023/05/17 03:09:11;;;;;;;13.38;7.45;;;5.60;97.10;;;;;;6184270;22;92498;-77
2023/05/17 03:11:36;;;;;;;15.70;8.60;;;5.60;96.80;;;;;;6184326;22;91775;-77
2023/05/17 03:14:02;;;;;;;15.57;7.95;;;5.60;96.80;;;;;;6183386;22;93568;-77
2023/05/17 03:16:28;;;;;;;17.27;8.02;;;5.50;96.90;;;;;;6184310;22;93314;-77
2023/05/17 03:18:53;;;;;;;15.50;8.13;;;5.50;96.80;;;;;;6183562;22;93334;-77
2023/05/17 03:21:19;;;;;;;18.48;8.77;;;5.50;96.90;;;;;;6183589;22;92546;-77
2023/05/17 03:23:44;;;;;;;12.77;7.53;;;5.50;96.90;;;;;;6183760;22;93204;-77
2023/05/17 03:26:10;;;;;;;16.95;8.52;;;5.50;96.80;;;;;;6183880;22;93188;-76
2023/05/17 03:28:36;;;;;;;19.98;8.60;;;5.50;96.80;;;;;;6184926;22;92463;-77
2023/05/17 03:31:01;;;;;;;12.65;7.43;;;5.40;96.60;;;;;;6183870;22;92311;-77
2023/05/17 03:33:27;;;;;;;15.55;7.40;;;5.40;96.60;;;;;;6183810;22;93244;-77
2023/05/17 03:35:53;;;;;;;22.15;8.70;;;5.50;96.50;;;;;;6181216;22;96666;-77
2023/05/17 03:38:18;;;;;;;17.05;8.48;;;5.40;96.40;;;;;;6183192;22;92432;-76
2023/05/17 03:40:44;;;;;;;16.80;8.80;;;5.40;96.50;;;;;;6184313;22;92562;-77
2023/05/17 03:43:10;;;;;;;13.63;7.07;;;5.40;96.50;;;;;;6183528;22;94587;-77
2023/05/17 03:45:35;;;;;;;14.95;8.13;;;5.40;96.60;;;;;;6183461;22;93815;-77
2023/05/17 03:48:01;;;;;;;10.00;6.93;;;5.30;96.50;;;;;;6184015;22;92496;-77
2023/05/17 03:50:26;;;;;;;14.32;7.68;;;5.30;96.30;;;;;;6183801;22;92591;-77
2023/05/17 03:52:52;;;;;;;12.80;7.10;;;5.30;96.50;;;;;;6183136;22;93387;-76
2023/05/17 03:55:18;;;;;;;16.58;8.60;;;5.20;96.30;;;;;;6184391;22;93261;-77
2023/05/17 03:57:44;;;;;;;15.38;7.55;;;5.30;96.30;;;;;;6183903;22;92632;-77
2023/05/17 04:00:11;;;;;;;13.30;8.13;;;5.20;96.20;;;;;;6184445;22;91770;-77
2023/05/17 04:02:37;;;;;;;17.58;8.80;;;5.20;96.30;;;;;;6183767;22;93039;-77
2023/05/17 04:05:03;;;;;;;18.10;8.25;;;5.20;96.30;;;;;;6183022;22;93704;-77
2023/05/17 04:07:29;;;;;;;18.02;8.80;;;5.20;96.30;;;;;;6184016;22;93401;-77
2023/05/17 04:09:58;;;;;;;17.98;8.88;;;5.20;96.20;;;;;;6182014;22;92625;-77
2023/05/17 04:12:25;;;;;;;14.25;8.27;;;5.20;96.30;;;;;;6182836;22;92798;-77
2023/05/17 04:14:50;;;;;;;15.95;8.20;;;5.20;96.60;;;;;;6181679;22;96838;-77
2023/05/17 04:17:16;;;;;;;16.08;9.55;;;5.30;96.80;;;;;;6184274;22;92318;-76
2023/05/17 04:19:42;;;;;;;15.98;9.13;;;5.30;97.00;;;;;;6184825;22;92353;-77
2023/05/17 04:22:07;;;;;;;24.45;11.32;;;5.40;97.20;;;;;;6183419;22;93574;-77
2023/05/17 04:24:33;;;;;;;18.30;10.85;;;5.40;97.30;;;;;;6155644;22;95280;-77
2023/05/17 04:26:58;;;;;;;22.88;12.07;;;5.40;97.40;;;;;;6182257;22;92627;-77
2023/05/17 04:29:25;;;;;;;17.58;10.68;;;5.50;97.50;;;;;;6182146;22;92304;-77
2023/05/17 04:31:50;;;;;;;21.67;11.23;;;5.60;97.40;;;;;;6181730;22;93990;-76
2023/05/17 04:34:16;;;;;;;19.13;10.30;;;5.60;97.30;;;;;;6183310;22;94337;-76
2023/05/17 04:36:42;;;;;;;17.98;10.23;;;5.70;97.30;;;;;;6182114;22;92231;-76
2023/05/17 04:39:08;;;;;;;21.00;10.43;;;5.80;97.20;;;;;;6182600;22;92534;-77
2023/05/17 04:41:33;;;;;;;20.55;11.20;;;5.90;97.10;;;;;;6155745;22;97039;-76
2023/05/17 04:43:59;;;;;;;23.00;12.35;;;6.00;97.20;;;;;;6181544;22;92781;-76
2023/05/17 04:46:25;;;;;;;25.58;14.25;;;6.10;97.40;;;;;;6184201;22;92415;-77
2023/05/17 04:48:52;;;;;;;18.63;12.38;;;6.20;97.70;;;;;;6183305;22;91592;-77
2023/05/17 04:51:18;;;;;;;27.23;13.75;;;6.30;97.70;;;;;;6155353;22;95263;-77
2023/05/17 04:53:43;;;;;;;21.02;11.07;;;6.30;97.60;;;;;;6182315;22;93388;-77
2023/05/17 04:56:09;;;;;;;28.05;11.57;;;6.40;97.40;;;;;;6181831;22;93540;-77
2023/05/17 04:58:35;;;;;;;24.73;12.63;;;6.50;97.50;;;;;;6183076;22;92362;-77
2023/05/17 05:01:00;;;;;;;26.92;13.77;;;6.60;97.70;;;;;;6181457;22;93150;-77
2023/05/17 05:03:26;;;;;;;25.38;12.98;;;6.70;97.70;;;;;;6181992;22;93367;-77
2023/05/17 05:05:51;;;;;;;21.70;11.80;;;6.80;97.80;;;;;;6182274;22;92681;-77
2023/05/17 05:08:17;;;;;;;29.85;13.35;;;6.90;97.60;;;;;;6182215;22;92533;-77
2023/05/17 05:10:43;;;;;;;25.92;13.45;;;7.00;97.60;;;;;;6155952;22;96413;-77
2023/05/17 05:13:08;;;;;;;29.38;13.10;;;7.10;97.70;;;;;;6181776;22;92731;-77
2023/05/17 05:15:34;;;;;;;28.98;13.13;;;7.20;97.50;;;;;;6182610;22;92440;-77
2023/05/17 05:18:00;;;;;;;31.08;14.13;;;7.30;97.50;;;;;;6182286;22;92508;-77
2023/05/17 05:20:25;;;;;;;28.35;14.15;;;7.40;97.40;;;;;;6181584;22;94448;-77
2023/05/17 05:22:51;;;;;;;29.10;14.27;;;7.50;97.40;;;;;;6181441;22;93790;-76
2023/05/17 05:25:17;;;;;;;31.48;14.60;;;7.50;97.50;;;;;;6183185;22;93558;-77
2023/05/17 05:27:43;;;;;;;32.08;14.85;;;7.60;97.50;;;;;;6182943;22;92559;-77
2023/05/17 05:30:09;;;;;;;30.60;13.65;;;7.60;97.60;;;;;;6182039;22;94110;-79
2023/05/17 05:32:36;;;;;;;29.55;14.50;;;7.70;97.50;;;;;;6155479;22;96350;-77
2023/05/17 05:35:04;;;;;;;31.70;14.30;;;7.80;97.40;;;;;;6182379;22;92526;-76
2023/05/17 05:37:30;;;;;;;37.22;14.70;;;7.90;97.50;;;;;;6183397;22;91925;-76
2023/05/17 05:39:55;;;;;;;27.23;13.65;;;8.00;97.30;;;;;;6181950;22;93481;-77
2023/05/17 05:42:21;;;;;;;29.70;14.52;;;8.10;97.20;;;;;;6181737;22;93091;-77
2023/05/17 05:44:47;;;;;;;31.63;15.05;;;8.30;97.20;;;;;;6181066;22;93661;-77
2023/05/17 05:47:12;;;;;;;28.88;15.52;;;8.40;97.20;;;;;;6181922;22;93188;-78
2023/05/17 05:49:38;;;;;;;33.67;15.65;;;8.50;97.20;;;;;;6182260;22;92510;-76
2023/05/17 05:52:03;;;;;;;27.85;14.68;;;8.60;96.80;;;;;;6181671;22;93616;-76
2023/05/17 05:54:30;;;;;;;35.50;16.25;;;8.80;96.90;;;;;;6183035;22;92308;-77
2023/05/17 05:56:55;;;;;;;36.65;15.77;;;8.90;96.90;;;;;;6182974;22;92625;-76
2023/05/17 05:59:21;;;;;;;30.52;15.88;;;9.00;96.60;;;;;;6181160;22;93546;-76
2023/05/17 06:01:47;;;;;;;32.45;15.20;;;9.10;96.60;;;;;;6182880;22;93834;-75
2023/05/17 06:04:12;;;;;;;31.02;15.93;;;9.20;96.30;;;;;;6181823;22;92413;-76
2023/05/17 06:06:38;;;;;;;34.55;15.23;;;9.30;96.30;;;;;;6181499;22;92349;-76
2023/05/17 06:09:05;;;;;;;39.72;16.55;;;9.50;96.10;;;;;;6180842;22;94871;-76
2023/05/17 06:11:31;;;;;;;30.02;15.00;;;9.60;96.10;;;;;;6154478;22;97500;-76
2023/05/17 06:13:57;;;;;;;38.15;17.17;;;9.70;95.80;;;;;;6182090;22;92570;-76
2023/05/17 06:16:23;;;;;;;36.30;15.68;;;9.80;95.80;;;;;;6184115;22;92473;-76
2023/05/17 06:18:48;;;;;;;46.10;15.85;;;10.00;95.40;;;;;;6182751;22;93292;-76
2023/05/17 06:21:15;;;;;;;34.95;14.57;;;10.10;95.40;;;;;;6182685;22;92314;-76
2023/05/17 06:23:40;;;;;;;29.65;14.20;;;10.20;94.50;;;;;;6183341;22;92551;-76
2023/05/17 06:26:09;;;;;;;35.35;14.98;;;10.30;94.60;;;;;;6183030;22;91729;-76
2023/05/17 06:28:35;;;;;;;37.22;15.20;;;10.30;94.20;;;;;;6182911;22;93070;-76
2023/05/17 06:31:01;;;;;;;32.65;15.02;;;10.30;94.80;;;;;;6182715;22;93398;-76
2023/05/17 06:33:26;;;;;;;35.13;14.93;;;10.40;94.70;;;;;;6182690;22;93496;-75
2023/05/17 06:35:53;;;;;;;36.55;15.43;;;10.50;94.70;;;;;;6182293;22;92567;-76
2023/05/17 06:38:19;;;;;;;40.42;15.95;;;10.70;94.50;;;;;;6180604;22;93382;-76
2023/05/17 06:40:44;;;;;;;23.77;13.50;;;10.80;93.80;;;;;;6180882;22;92443;-73
2023/05/17 06:43:10;;;;;;;30.50;14.15;;;10.80;93.70;;;;;;6182787;22;92036;-74
2023/05/17 06:45:35;;;;;;;28.98;14.43;;;10.90;93.90;;;;;;6155441;22;92618;-74
2023/05/17 06:48:01;;;;;;;28.67;14.88;;;11.10;93.10;;;;;;6154674;22;96853;-75
2023/05/17 06:50:27;;;;;;;27.88;13.77;;;11.20;93.40;;;;;;6182665;22;93206;-75
2023/05/17 06:52:53;;;;;;;33.92;15.25;;;11.20;92.70;;;;;;6182754;22;92535;-75
2023/05/17 06:55:19;;;;;;;24.10;13.57;;;11.30;93.30;;;;;;6182883;22;92366;-75
2023/05/17 06:57:46;;;;;;;34.92;15.18;;;11.30;93.00;;;;;;6181261;22;95933;-75
2023/05/17 07:00:12;;;;;;;28.55;12.73;;;11.50;93.00;;;;;;6181658;22;94124;-74
2023/05/17 07:02:38;;;;;;;30.77;13.30;;;11.50;92.10;;;;;;6181377;22;92576;-78
2023/05/17 07:05:05;;;;;;;33.75;13.73;;;11.50;91.90;;;;;;6182591;22;92690;-77
2023/05/17 07:07:31;;;;;;;35.60;13.57;;;11.60;92.00;;;;;;6183620;22;93538;-77
2023/05/17 07:09:57;;;;;;;31.65;12.55;;;11.70;92.90;;;;;;6182231;22;92735;-77
2023/05/17 07:12:22;;;;;;;30.65;13.25;;;11.80;92.00;;;;;;6182933;22;92506;-79
2023/05/17 07:14:48;;;;;;;25.73;13.02;;;11.90;92.70;;;;;;6183732;22;91382;-80
2023/05/17 07:17:14;;;;;;;27.15;11.60;;;12.00;91.60;;;;;;6182920;22;92977;-79
2023/05/17 07:19:39;;;;;;;27.80;10.88;;;12.10;91.50;;;;;;6183578;22;92967;-79
2023/05/17 07:22:05;;;;;;;27.35;11.13;;;12.10;91.50;;;;;;6182917;22;94255;-79
2023/05/17 07:24:31;;;;;;;29.48;11.60;;;12.20;90.90;;;;;;6182910;22;92683;-79
2023/05/17 07:26:56;;;;;;;34.65;12.75;;;12.30;90.70;;;;;;6182859;22;93112;-78
2023/05/17 07:29:23;;;;;;;28.33;11.57;;;12.30;91.50;;;;;;6184556;22;93674;-80
2023/05/17 07:31:48;;;;;;;32.47;10.23;;;12.50;91.20;;;;;;6158408;22;92195;-79
2023/05/17 07:34:14;;;;;;;28.67;11.57;;;12.60;90.80;;;;;;6182668;22;92488;-78
2023/05/17 07:36:40;;;;;;;32.08;11.65;;;12.80;90.90;;;;;;6182652;22;93254;-78
2023/05/17 07:39:05;;;;;;;28.67;10.43;;;13.00;90.10;;;;;;6183277;22;92950;-78
2023/05/17 07:41:32;;;;;;;27.10;9.68;;;13.30;88.50;;;;;;6156492;22;92607;-79
2023/05/17 07:43:58;;;;;;;25.52;9.20;;;13.60;87.90;;;;;;6181034;22;92716;-78
2023/05/17 07:46:24;;;;;;;26.92;9.10;;;13.80;86.60;;;;;;6183298;22;94323;-80
2023/05/17 07:48:49;;;;;;;20.60;7.47;;;14.00;85.60;;;;;;6182170;22;94181;-80
2023/05/17 07:51:15;;;;;;;22.90;7.90;;;14.30;82.80;;;;;;6183027;22;92488;-80
2023/05/17 07:53:41;;;;;;;25.70;7.38;;;14.50;82.80;;;;;;6183769;22;92391;-80
2023/05/17 07:56:06;;;;;;;19.92;6.75;;;14.60;80.50;;;;;;6182176;22;93901;-79
2023/05/17 07:58:32;;;;;;;21.08;6.80;;;14.60;78.90;;;;;;6184908;22;93135;-80
2023/05/17 08:00:58;;;;;;;21.35;7.88;;;14.60;77.90;;;;;;6182577;22;92721;-80
2023/05/17 08:03:24;;;;;;;21.83;6.75;;;14.60;76.80;;;;;;6183026;22;91551;-79
2023/05/17 08:05:50;;;;;;;17.33;6.18;;;14.30;77.80;;;;;;6182061;22;93162;-80
2023/05/17 08:08:15;;;;;;;19.25;5.25;;;14.10;78.20;;;;;;6180792;22;96452;-79
2023/05/17 08:10:42;;;;;;;16.83;5.05;;;14.10;78.40;;;;;;6183439;22;93543;-79
2023/05/17 08:13:08;;;;;;;13.10;4.10;;;14.30;77.50;;;;;;6183416;22;92568;-80
2023/05/17 08:15:33;;;;;;;13.50;3.97;;;14.50;75.20;;;;;;6182117;22;93357;-79
2023/05/17 08:17:59;;;;;;;11.65;3.38;;;14.70;72.30;;;;;;6177483;22;93455;-79
2023/05/17 08:20:24;;;;;;;12.00;3.03;;;14.90;71.90;;;;;;6179157;22;92493;-79
2023/05/17 08:22:50;;;;;;;11.13;3.78;;;15.20;70.50;;;;;;6178074;22;92489;-79
2023/05/17 08:25:16;;;;;;;14.23;3.47;;;15.40;69.00;;;;;;6177029;22;92486;-79
2023/05/17 08:27:41;;;;;;;16.30;3.67;;;15.70;70.00;;;;;;6178921;22;92032;-78
2023/05/17 08:30:07;;;;;;;12.20;3.53;;;15.80;66.50;;;;;;6179123;22;92775;-75
2023/05/17 08:32:33;;;;;;;14.23;3.55;;;15.60;64.80;;;;;;6178703;22;92474;-76
2023/05/17 08:34:59;;;;;;;13.05;3.25;;;15.50;65.20;;;;;;6179321;22;94424;-79
2023/05/17 08:37:24;;;;;;;15.32;2.80;;;15.50;64.30;;;;;;6181588;22;93463;-79
2023/05/17 08:39:50;;;;;;;10.35;2.85;;;15.50;63.90;;;;;;6181794;22;92045;-79
2023/05/17 08:42:26;;;;;;;12.00;2.70;;;15.50;61.60;;;;;;6179046;22;92468;-80
2023/05/17 08:44:53;;;;;;;11.52;3.10;;;15.60;64.00;;;;;;6128729;22;1206340;-80
2023/05/17 08:47:28;;;;;;;12.23;2.88;;;15.80;62.60;;;;;;6180235;22;96338;-79
2023/05/17 08:50:03;;;;;;;10.70;3.03;;;16.00;62.10;;;;;;6155977;22;92407;-80
2023/05/17 08:52:33;;;;;;;15.25;3.10;;;16.20;61.50;;;;;;6182320;22;91751;-80
2023/05/17 08:55:06;;;;;;;11.35;2.88;;;16.40;64.30;;;;;;6180837;22;93200;-78
2023/05/17 08:57:36;;;;;;;8.75;2.40;;;16.70;61.40;;;;;;6181040;22;93710;-78
2023/05/17 09:00:05;;;;;;;12.18;2.40;;;16.90;62.60;;;;;;6154112;22;93324;-78
2023/05/17 09:02:31;;;;;;;7.88;1.80;;;17.20;59.00;;;;;;6181846;22;92614;-78
2023/05/17 09:04:58;;;;;;;9.18;2.13;;;17.40;54.40;;;;;;6154139;22;97159;-77
2023/05/17 09:07:24;;;;;;;9.77;1.95;;;17.60;56.00;;;;;;6182411;22;93591;-77
2023/05/17 09:09:52;;;;;;;8.77;1.92;;;17.80;54.30;;;;;;6180778;22;92495;-81
2023/05/17 09:12:18;;;;;;;9.00;2.33;;;17.90;56.30;;;;;;6182852;22;92254;-78
2023/05/17 09:14:47;;;;;;;8.48;2.42;;;18.00;54.40;;;;;;6181598;22;94358;-77
2023/05/17 09:17:17;;;;;;;10.50;2.00;;;17.80;50.50;;;;;;6154999;22;94309;-75
2023/05/17 09:19:45;;;;;;;9.52;1.92;;;17.60;56.40;;;;;;6183454;22;92564;-77
2023/05/17 09:22:16;;;;;;;7.53;2.03;;;17.90;56.90;;;;;;6182350;22;92687;-77
2023/05/17 09:24:42;;;;;;;11.02;2.47;;;18.20;54.50;;;;;;6180844;22;95269;-77
2023/05/17 09:27:13;;;;;;;11.10;2.28;;;18.30;52.30;;;;;;6181900;22;94146;-77
2023/05/17 09:29:38;;;;;;;8.32;1.88;;;18.60;54.30;;;;;;6182183;22;92625;-77
2023/05/17 09:32:12;;;;;;;9.02;1.77;;;18.30;50.90;;;;;;6182080;22;92371;-76
2023/05/17 09:34:39;;;;;;;6.95;1.50;;;18.00;50.80;;;;;;6182886;22;93454;-78
2023/05/17 09:37:11;;;;;;;12.15;2.92;;;18.00;53.20;;;;;;6181871;22;93191;-78
2023/05/17 09:39:36;;;;;;;7.30;1.45;;;18.00;49.80;;;;;;6182781;22;92585;-79
2023/05/17 09:42:03;;;;;;;12.68;2.35;;;17.70;52.30;;;;;;6182092;22;91736;-76
2023/05/17 09:44:29;;;;;;;9.27;1.63;;;17.90;55.50;;;;;;6181117;22;93338;-76
2023/05/17 09:46:56;;;;;;;8.02;1.90;;;18.40;52.20;;;;;;6182645;22;96330;-75
2023/05/17 09:49:26;;;;;;;12.10;2.83;;;18.70;52.10;;;;;;6183641;22;93469;-75
2023/05/17 09:51:52;;;;;;;9.55;1.83;;;18.90;48.50;;;;;;6183243;22;92745;-76
2023/05/17 09:54:18;;;;;;;8.18;1.90;;;19.00;50.60;;;;;;6181269;22;95379;-76
2023/05/17 09:56:44;;;;;;;9.18;1.70;;;18.90;50.00;;;;;;6183146;22;93231;-75
2023/05/17 09:59:12;;;;;;;12.13;2.20;;;19.00;50.20;;;;;;6182648;22;92612;-76
2023/05/17 10:01:40;;;;;;;13.73;1.80;;;19.00;49.60;;;;;;6157382;22;92584;-76
2023/05/17 10:04:09;;;;;;;9.88;2.05;;;19.20;46.80;;;;;;6182693;22;93267;-76
2023/05/17 10:06:40;;;;;;;8.93;1.85;;;19.10;48.10;;;;;;6183583;22;98551;-75
2023/05/17 10:09:11;;;;;;;7.18;1.70;;;18.90;49.70;;;;;;6183473;22;92599;-75
2023/05/17 10:11:39;;;;;;;5.97;1.50;;;19.00;51.30;;;;;;6183710;22;92669;-73
2023/05/17 10:14:21;;;;;;;7.53;1.63;;;19.20;47.70;;;;;;6154324;22;97318;-73
2023/05/17 10:16:48;;;;;;;12.13;1.95;;;19.40;48.10;;;;;;6183694;22;94725;-73
2023/05/17 10:19:14;;;;;;;8.93;1.60;;;19.50;46.40;;;;;;6156056;22;92562;-73
2023/05/17 10:21:42;;;;;;;12.48;2.33;;;19.60;47.40;;;;;;6183387;22;92123;-73
2023/05/17 10:24:10;;;;;;;8.90;2.10;;;19.50;46.90;;;;;;6181648;22;93534;-75
2023/05/17 10:26:35;;;;;;;5.35;1.67;;;19.80;47.20;;;;;;6182153;22;92597;-77
2023/05/17 10:29:04;;;;;;;5.82;1.58;;;20.20;49.00;;;;;;6182980;22;92419;-74
2023/05/17 10:31:35;;;;;;;9.35;1.63;;;20.60;49.90;;;;;;6183962;22;91806;-76
2023/05/17 10:34:03;;;;;;;12.98;2.08;;;21.10;50.30;;;;;;6182936;22;93600;-76
2023/05/17 10:36:29;;;;;;;9.20;1.73;;;21.10;44.70;;;;;;6155370;22;96316;-77
2023/05/17 10:38:55;;;;;;;8.65;1.85;;;21.20;47.30;;;;;;6182861;22;93210;-76
2023/05/17 10:41:24;;;;;;;10.18;1.60;;;21.20;45.90;;;;;;6183623;22;92546;-74
2023/05/17 10:43:52;;;;;;;9.27;1.85;;;21.20;45.60;;;;;;6183263;22;93571;-76
2023/05/17 10:46:22;;;;;;;9.15;1.48;;;21.40;44.70;;;;;;6183260;22;97547;-74
2023/05/17 10:48:50;;;;;;;9.30;1.92;;;21.30;45.80;;;;;;6182687;22;92642;-73
2023/05/17 10:51:24;;;;;;;9.05;2.03;;;21.70;46.70;;;;;;6155481;22;92877;-74
2023/05/17 10:54:20;;;;;;;7.80;1.55;;;22.00;42.00;;;;;;6182616;22;93556;-74
2023/05/17 10:56:53;;;;;;;12.48;2.38;;;22.10;43.20;;;;;;6172473;22;93605;-77
2023/05/17 10:59:28;;;;;;;7.65;1.30;;;22.60;44.40;;;;;;6182990;22;92507;-74
2023/05/17 11:02:09;;;;;;;6.50;1.60;;;22.00;38.30;;;;;;6181934;22;92454;-73
2023/05/17 11:04:40;;;;;;;7.20;1.70;;;21.40;44.50;;;;;;6182734;22;93669;-74
2023/05/17 11:07:15;;;;;;;9.02;1.58;;;21.80;45.80;;;;;;6181542;22;93903;-74
2023/05/17 11:09:49;;;;;;;8.27;2.13;;;22.30;46.00;;;;;;6181114;22;92471;-73
2023/05/17 11:12:16;;;;;;;12.40;2.10;;;22.80;44.70;;;;;;6181315;22;93090;-73
2023/05/17 11:15:11;;;;;;;10.25;1.88;;;23.10;43.40;;;;;;6180803;22;92966;-74
2023/05/17 11:17:43;;;;;;;8.30;1.80;;;22.80;40.60;;;;;;6167604;22;93043;-74
2023/05/17 11:20:15;;;;;;;10.50;2.22;;;21.90;40.10;;;;;;6182905;22;92311;-74
2023/05/17 11:22:58;;;;;;;8.38;1.88;;;21.20;43.90;;;;;;6184240;22;91801;-73
2023/05/17 11:25:31;;;;;;;11.90;1.83;;;21.10;46.50;;;;;;6181597;22;97931;-74
2023/05/17 11:27:58;;;;;;;5.70;1.30;;;21.30;43.60;;;;;;6182044;22;94024;-74
2023/05/17 11:30:28;;;;;;;7.65;1.90;;;21.40;42.50;;;;;;6180570;22;93319;-76
2023/05/17 11:33:04;;;;;;;14.05;1.73;;;21.50;43.70;;;;;;6182236;22;92294;-74
2023/05/17 11:35:35;;;;;;;7.90;1.75;;;21.90;44.50;;;;;;6182458;22;99674;-75
2023/05/17 11:38:20;;;;;;;13.20;1.90;;;22.00;41.00;;;;;;6182445;22;92989;-74
2023/05/17 11:40:51;;;;;;;9.02;2.05;;;22.10;41.00;;;;;;6184490;22;92858;-74
2023/05/17 11:43:22;;;;;;;9.00;1.80;;;22.20;43.00;;;;;;6183211;22;92371;-75
2023/05/17 11:45:49;;;;;;;8.57;1.77;;;22.60;39.20;;;;;;6155411;22;94809;-75
2023/05/17 11:48:17;;;;;;;10.60;2.00;;;22.80;37.80;;;;;;6183432;22;93308;-75
2023/05/17 11:50:44;;;;;;;11.07;1.65;;;22.70;41.30;;;;;;6155712;22;92098;-74
2023/05/17 11:53:11;;;;;;;8.20;1.60;;;22.40;41.90;;;;;;6182011;22;92329;-75
2023/05/17 11:55:41;;;;;;;7.07;1.50;;;22.10;42.50;;;;;;6182777;22;93395;-74
2023/05/17 11:58:09;;;;;;;6.60;1.55;;;22.10;42.10;;;;;;6182474;22;94604;-74
2023/05/17 12:00:37;;;;;;;8.30;1.90;;;22.80;41.80;;;;;;6182396;22;92725;-74
2023/05/17 12:03:16;;;;;;;9.77;1.95;;;23.10;39.00;;;;;;6155000;22;92724;-74
2023/05/17 12:05:42;;;;;;;9.57;1.40;;;22.60;41.30;;;;;;6181495;22;93366;-74
2023/05/17 12:08:08;;;;;;;6.97;1.60;;;23.00;41.60;;;;;;6181889;22;93215;-75
2023/05/17 12:10:34;;;;;;;5.13;1.30;;;23.40;41.10;;;;;;6183197;22;92491;-75
2023/05/17 12:12:59;;;;;;;8.35;2.08;;;23.50;39.90;;;;;;6182534;22;91876;-74
2023/05/17 12:15:27;;;;;;;7.53;1.58;;;23.50;38.70;;;;;;6182077;22;94098;-75
2023/05/17 12:17:54;;;;;;;9.30;1.60;;;23.80;38.90;;;;;;6181901;22;93243;-77
2023/05/17 12:20:20;;;;;;;8.00;1.65;;;24.00;40.90;;;;;;6182677;22;93306;-74
2023/05/17 12:22:55;;;;;;;8.30;1.30;;;24.30;40.90;;;;;;6183057;22;92942;-74
2023/05/17 12:25:24;;;;;;;4.97;1.15;;;24.20;34.70;;;;;;6181315;22;98102;-74
2023/05/17 12:27:50;;;;;;;5.97;1.52;;;24.00;34.20;;;;;;6181964;22;92923;-74
2023/05/17 12:30:16;;;;;;;8.48;1.67;;;23.10;38.40;;;;;;6182290;22;92473;-73
2023/05/17 12:32:43;;;;;;;6.63;1.50;;;23.20;40.10;;;;;;6182863;22;92753;-74
2023/05/17 12:35:09;;;;;;;6.95;1.75;;;23.60;40.80;;;;;;6181647;22;93125;-74
2023/05/17 12:37:35;;;;;;;7.30;1.45;;;24.00;38.80;;;;;;6183195;22;92128;-74
2023/05/17 12:40:03;;;;;;;8.93;1.58;;;23.90;36.50;;;;;;6182404;22;92327;-74
2023/05/17 12:42:30;;;;;;;6.95;1.83;;;23.80;37.60;;;;;;6181160;22;92618;-74